sensor_id;sensor_type;location;lat;lon;timestamp;P1;durP1;ratioP1;P2;durP2;ratioP2
37288;SDS011;23174;49.462;11.000;2024-02-15T00:01:27;4.32;;;3.60;;
37288;SDS011;23174;49.462;11.000;2024-02-15T00:03:28;4.40;;;3.67;;
37288;SDS011;23174;49.462;11.000;2024-02-15T00:05:29;4.75;;;4.13;;
37288;SDS011;23174;49.462;11.000;2024-02-15T00:07:30;4.15;;;3.75;;
37288;SDS011;23174;49.462;11.000;2024-02-15T00:09:30;3.47;;;3.17;;
37288;SDS011;23174;49.462;11.000;2024-02-15T00:11:31;3.47;;;3.25;;
37288;SDS011;23174;49.462;11.000;2024-02-15T00:13:32;4.38;;;3.50;;
37288;SDS011;23174;49.462;11.000;2024-02-15T00:15:33;4.20;;;3.80;;
37288;SDS011;23174;49.462;11.000;2024-02-15T00:17:34;3.53;;;3.22;;
37288;SDS011;23174;49.462;11.000;2024-02-15T00:19:35;4.90;;;3.50;;
37288;SDS011;23174;49.462;11.000;2024-02-15T00:21:36;5.88;;;3.60;;
37288;SDS011;23174;49.462;11.000;2024-02-15T00:23:36;3.50;;;3.20;;
37288;SDS011;23174;49.462;11.000;2024-02-15T00:25:37;4.32;;;3.75;;
37288;SDS011;23174;49.462;11.000;2024-02-15T00:27:37;3.42;;;3.13;;
37288;SDS011;23174;49.462;11.000;2024-02-15T00:29:38;4.38;;;3.58;;
37288;SDS011;23174;49.462;11.000;2024-02-15T00:31:40;3.92;;;3.63;;
37288;SDS011;23174;49.462;11.000;2024-02-15T00:33:40;3.92;;;3.63;;
37288;SDS011;23174;49.462;11.000;2024-02-15T00:35:41;5.35;;;3.85;;
37288;SDS011;23174;49.462;11.000;2024-02-15T00:37:41;3.45;;;3.17;;
37288;SDS011;23174;49.462;11.000;2024-02-15T00:39:42;3.40;;;3.13;;
37288;SDS011;23174;49.462;11.000;2024-02-15T00:41:43;4.30;;;3.85;;
37288;SDS011;23174;49.462;11.000;2024-02-15T00:43:45;4.57;;;3.38;;
37288;SDS011;23174;49.462;11.000;2024-02-15T00:45:45;3.72;;;3.42;;
37288;SDS011;23174;49.462;11.000;2024-02-15T00:47:49;3.47;;;3.17;;
37288;SDS011;23174;49.462;11.000;2024-02-15T00:49:49;3.70;;;3.30;;
37288;SDS011;23174;49.462;11.000;2024-02-15T00:51:53;6.18;;;3.67;;
37288;SDS011;23174;49.462;11.000;2024-02-15T00:53:53;4.68;;;3.83;;
37288;SDS011;23174;49.462;11.000;2024-02-15T00:55:55;3.60;;;3.30;;
37288;SDS011;23174;49.462;11.000;2024-02-15T00:57:55;3.53;;;3.22;;
37288;SDS011;23174;49.462;11.000;2024-02-15T00:59:56;4.00;;;3.60;;
37288;SDS011;23174;49.462;11.000;2024-02-15T01:01:56;4.47;;;4.07;;
37288;SDS011;23174;49.462;11.000;2024-02-15T01:03:57;4.20;;;3.45;;
37288;SDS011;23174;49.462;11.000;2024-02-15T01:05:58;4.40;;;3.40;;
37288;SDS011;23174;49.462;11.000;2024-02-15T01:07:58;4.53;;;4.00;;
37288;SDS011;23174;49.462;11.000;2024-02-15T01:09:59;5.22;;;2.95;;
37288;SDS011;23174;49.462;11.000;2024-02-15T01:11:59;3.60;;;3.30;;
37288;SDS011;23174;49.462;11.000;2024-02-15T01:14:00;3.92;;;3.00;;
37288;SDS011;23174;49.462;11.000;2024-02-15T01:16:00;3.78;;;3.40;;
37288;SDS011;23174;49.462;11.000;2024-02-15T01:18:03;3.35;;;3.03;;
37288;SDS011;23174;49.462;11.000;2024-02-15T01:20:03;3.78;;;3.10;;
37288;SDS011;23174;49.462;11.000;2024-02-15T01:22:05;3.58;;;3.28;;
37288;SDS011;23174;49.462;11.000;2024-02-15T01:24:06;3.15;;;2.85;;
37288;SDS011;23174;49.462;11.000;2024-02-15T01:26:07;3.05;;;2.85;;
37288;SDS011;23174;49.462;11.000;2024-02-15T01:28:07;4.32;;;3.08;;
37288;SDS011;23174;49.462;11.000;2024-02-15T01:30:07;4.47;;;3.25;;
37288;SDS011;23174;49.462;11.000;2024-02-15T01:32:08;4.40;;;2.92;;
37288;SDS011;23174;49.462;11.000;2024-02-15T01:34:09;3.78;;;3.35;;
37288;SDS011;23174;49.462;11.000;2024-02-15T01:36:13;2.78;;;2.58;;
37288;SDS011;23174;49.462;11.000;2024-02-15T01:38:17;3.13;;;2.92;;
37288;SDS011;23174;49.462;11.000;2024-02-15T01:40:17;2.90;;;2.70;;
37288;SDS011;23174;49.462;11.000;2024-02-15T01:42:18;3.10;;;2.83;;
37288;SDS011;23174;49.462;11.000;2024-02-15T01:44:19;3.35;;;2.60;;
37288;SDS011;23174;49.462;11.000;2024-02-15T01:46:20;3.00;;;2.67;;
37288;SDS011;23174;49.462;11.000;2024-02-15T01:48:21;2.92;;;2.60;;
37288;SDS011;23174;49.462;11.000;2024-02-15T01:50:22;3.13;;;2.90;;
37288;SDS011;23174;49.462;11.000;2024-02-15T01:52:24;3.10;;;2.80;;
37288;SDS011;23174;49.462;11.000;2024-02-15T01:54:26;2.70;;;2.50;;
37288;SDS011;23174;49.462;11.000;2024-02-15T01:56:27;2.85;;;2.47;;
37288;SDS011;23174;49.462;11.000;2024-02-15T01:58:28;2.60;;;2.40;;
37288;SDS011;23174;49.462;11.000;2024-02-15T02:00:32;3.75;;;2.25;;
37288;SDS011;23174;49.462;11.000;2024-02-15T02:02:32;4.45;;;2.55;;
37288;SDS011;23174;49.462;11.000;2024-02-15T02:04:35;3.35;;;2.40;;
37288;SDS011;23174;49.462;11.000;2024-02-15T02:06:37;3.17;;;2.47;;
37288;SDS011;23174;49.462;11.000;2024-02-15T02:08:38;2.83;;;2.40;;
37288;SDS011;23174;49.462;11.000;2024-02-15T02:10:39;2.67;;;2.30;;
37288;SDS011;23174;49.462;11.000;2024-02-15T02:12:40;2.85;;;2.30;;
37288;SDS011;23174;49.462;11.000;2024-02-15T02:14:40;4.03;;;2.20;;
37288;SDS011;23174;49.462;11.000;2024-02-15T02:16:41;4.95;;;2.72;;
37288;SDS011;23174;49.462;11.000;2024-02-15T02:18:42;3.40;;;2.58;;
37288;SDS011;23174;49.462;11.000;2024-02-15T02:20:43;3.03;;;2.33;;
37288;SDS011;23174;49.462;11.000;2024-02-15T02:22:46;2.63;;;2.42;;
37288;SDS011;23174;49.462;11.000;2024-02-15T02:26:58;3.65;;;2.72;;
37288;SDS011;23174;49.462;11.000;2024-02-15T02:28:59;2.90;;;2.70;;
37288;SDS011;23174;49.462;11.000;2024-02-15T02:30:59;2.70;;;2.50;;
37288;SDS011;23174;49.462;11.000;2024-02-15T02:33:00;3.05;;;2.67;;
37288;SDS011;23174;49.462;11.000;2024-02-15T02:35:02;2.42;;;2.22;;
37288;SDS011;23174;49.462;11.000;2024-02-15T02:37:03;3.40;;;2.55;;
37288;SDS011;23174;49.462;11.000;2024-02-15T02:39:05;2.60;;;2.40;;
37288;SDS011;23174;49.462;11.000;2024-02-15T02:41:07;2.72;;;2.50;;
37288;SDS011;23174;49.462;11.000;2024-02-15T02:43:07;2.72;;;2.53;;
37288;SDS011;23174;49.462;11.000;2024-02-15T02:45:08;4.28;;;2.72;;
37288;SDS011;23174;49.462;11.000;2024-02-15T02:47:08;3.75;;;2.30;;
37288;SDS011;23174;49.462;11.000;2024-02-15T02:49:09;2.75;;;2.33;;
37288;SDS011;23174;49.462;11.000;2024-02-15T02:51:09;2.92;;;2.30;;
37288;SDS011;23174;49.462;11.000;2024-02-15T02:53:10;5.28;;;2.30;;
37288;SDS011;23174;49.462;11.000;2024-02-15T02:55:11;2.58;;;2.38;;
37288;SDS011;23174;49.462;11.000;2024-02-15T02:57:11;2.78;;;2.15;;
37288;SDS011;23174;49.462;11.000;2024-02-15T02:59:12;2.58;;;2.38;;
37288;SDS011;23174;49.462;11.000;2024-02-15T03:01:12;2.67;;;2.47;;
37288;SDS011;23174;49.462;11.000;2024-02-15T03:03:13;4.63;;;2.83;;
37288;SDS011;23174;49.462;11.000;2024-02-15T03:05:13;2.28;;;2.17;;
37288;SDS011;23174;49.462;11.000;2024-02-15T03:07:14;2.80;;;2.55;;
37288;SDS011;23174;49.462;11.000;2024-02-15T03:09:17;2.88;;;2.55;;
37288;SDS011;23174;49.462;11.000;2024-02-15T03:11:17;2.85;;;2.60;;
37288;SDS011;23174;49.462;11.000;2024-02-15T03:13:18;2.58;;;2.38;;
37288;SDS011;23174;49.462;11.000;2024-02-15T03:15:22;2.50;;;2.30;;
37288;SDS011;23174;49.462;11.000;2024-02-15T03:17:23;2.60;;;2.40;;
37288;SDS011;23174;49.462;11.000;2024-02-15T03:19:23;4.00;;;2.28;;
37288;SDS011;23174;49.462;11.000;2024-02-15T03:21:26;3.67;;;2.67;;
37288;SDS011;23174;49.462;11.000;2024-02-15T03:23:26;2.28;;;2.10;;
37288;SDS011;23174;49.462;11.000;2024-02-15T03:25:29;3.17;;;2.88;;
37288;SDS011;23174;49.462;11.000;2024-02-15T03:27:30;3.15;;;2.42;;
37288;SDS011;23174;49.462;11.000;2024-02-15T03:29:30;2.15;;;2.03;;
37288;SDS011;23174;49.462;11.000;2024-02-15T03:31:31;2.47;;;2.28;;
37288;SDS011;23174;49.462;11.000;2024-02-15T03:33:33;2.97;;;2.67;;
37288;SDS011;23174;49.462;11.000;2024-02-15T03:35:34;3.08;;;2.67;;
37288;SDS011;23174;49.462;11.000;2024-02-15T03:37:35;2.63;;;2.40;;
37288;SDS011;23174;49.462;11.000;2024-02-15T03:39:37;4.82;;;2.80;;
37288;SDS011;23174;49.462;11.000;2024-02-15T03:41:37;3.28;;;3.00;;
37288;SDS011;23174;49.462;11.000;2024-02-15T03:43:38;3.85;;;3.00;;
37288;SDS011;23174;49.462;11.000;2024-02-15T03:45:38;2.78;;;2.58;;
37288;SDS011;23174;49.462;11.000;2024-02-15T03:47:39;4.32;;;2.78;;
37288;SDS011;23174;49.462;11.000;2024-02-15T03:49:40;4.25;;;3.10;;
37288;SDS011;23174;49.462;11.000;2024-02-15T03:51:42;3.53;;;2.63;;
37288;SDS011;23174;49.462;11.000;2024-02-15T03:53:44;4.75;;;2.63;;
37288;SDS011;23174;49.462;11.000;2024-02-15T03:55:45;3.00;;;2.80;;
37288;SDS011;23174;49.462;11.000;2024-02-15T03:57:45;2.83;;;2.58;;
37288;SDS011;23174;49.462;11.000;2024-02-15T03:59:46;2.63;;;2.42;;
37288;SDS011;23174;49.462;11.000;2024-02-15T04:01:53;3.15;;;2.70;;
37288;SDS011;23174;49.462;11.000;2024-02-15T04:03:54;2.70;;;2.50;;
37288;SDS011;23174;49.462;11.000;2024-02-15T04:05:55;2.67;;;2.47;;
37288;SDS011;23174;49.462;11.000;2024-02-15T04:07:56;2.55;;;2.35;;
37288;SDS011;23174;49.462;11.000;2024-02-15T04:09:56;3.47;;;2.47;;
37288;SDS011;23174;49.462;11.000;2024-02-15T04:11:57;3.03;;;2.50;;
37288;SDS011;23174;49.462;11.000;2024-02-15T04:13:57;2.58;;;2.38;;
37288;SDS011;23174;49.462;11.000;2024-02-15T04:15:58;2.90;;;2.47;;
37288;SDS011;23174;49.462;11.000;2024-02-15T04:17:58;2.55;;;2.35;;
37288;SDS011;23174;49.462;11.000;2024-02-15T04:19:59;2.33;;;2.13;;
37288;SDS011;23174;49.462;11.000;2024-02-15T04:22:00;3.25;;;2.67;;
37288;SDS011;23174;49.462;11.000;2024-02-15T04:24:04;2.70;;;2.50;;
37288;SDS011;23174;49.462;11.000;2024-02-15T04:26:05;3.85;;;2.58;;
37288;SDS011;23174;49.462;11.000;2024-02-15T04:28:05;2.60;;;2.40;;
37288;SDS011;23174;49.462;11.000;2024-02-15T04:30:08;3.58;;;2.30;;
37288;SDS011;23174;49.462;11.000;2024-02-15T04:32:10;3.53;;;2.35;;
37288;SDS011;23174;49.462;11.000;2024-02-15T04:34:11;3.20;;;2.90;;
37288;SDS011;23174;49.462;11.000;2024-02-15T04:36:12;3.67;;;2.60;;
37288;SDS011;23174;49.462;11.000;2024-02-15T04:38:12;3.03;;;2.70;;
37288;SDS011;23174;49.462;11.000;2024-02-15T04:40:13;3.03;;;2.72;;
37288;SDS011;23174;49.462;11.000;2024-02-15T04:42:13;2.90;;;2.55;;
37288;SDS011;23174;49.462;11.000;2024-02-15T04:44:15;3.42;;;2.97;;
37288;SDS011;23174;49.462;11.000;2024-02-15T04:46:16;3.67;;;2.92;;
37288;SDS011;23174;49.462;11.000;2024-02-15T04:48:17;4.60;;;2.85;;
37288;SDS011;23174;49.462;11.000;2024-02-15T04:50:19;5.07;;;2.97;;
37288;SDS011;23174;49.462;11.000;2024-02-15T04:52:20;3.15;;;2.83;;
37288;SDS011;23174;49.462;11.000;2024-02-15T04:54:23;3.97;;;2.60;;
37288;SDS011;23174;49.462;11.000;2024-02-15T04:56:24;2.78;;;2.47;;
37288;SDS011;23174;49.462;11.000;2024-02-15T04:58:24;6.07;;;2.97;;
37288;SDS011;23174;49.462;11.000;2024-02-15T05:00:25;2.90;;;2.70;;
37288;SDS011;23174;49.462;11.000;2024-02-15T05:02:25;2.88;;;2.60;;
37288;SDS011;23174;49.462;11.000;2024-02-15T05:04:26;2.50;;;2.30;;
37288;SDS011;23174;49.462;11.000;2024-02-15T05:06:26;3.47;;;2.53;;
37288;SDS011;23174;49.462;11.000;2024-02-15T05:08:29;2.30;;;2.10;;
37288;SDS011;23174;49.462;11.000;2024-02-15T05:10:31;3.05;;;2.17;;
37288;SDS011;23174;49.462;11.000;2024-02-15T05:12:32;2.63;;;2.42;;
37288;SDS011;23174;49.462;11.000;2024-02-15T05:14:33;2.28;;;2.08;;
37288;SDS011;23174;49.462;11.000;2024-02-15T05:16:36;5.00;;;2.55;;
37288;SDS011;23174;49.462;11.000;2024-02-15T05:18:42;3.00;;;2.67;;
37288;SDS011;23174;49.462;11.000;2024-02-15T05:20:42;2.50;;;2.30;;
37288;SDS011;23174;49.462;11.000;2024-02-15T05:22:43;3.15;;;2.50;;
37288;SDS011;23174;49.462;11.000;2024-02-15T05:24:45;4.93;;;2.20;;
37288;SDS011;23174;49.462;11.000;2024-02-15T05:26:46;2.50;;;2.30;;
37288;SDS011;23174;49.462;11.000;2024-02-15T05:28:47;2.85;;;2.28;;
37288;SDS011;23174;49.462;11.000;2024-02-15T05:30:47;2.60;;;2.40;;
37288;SDS011;23174;49.462;11.000;2024-02-15T05:32:48;3.30;;;2.88;;
37288;SDS011;23174;49.462;11.000;2024-02-15T05:34:49;2.33;;;2.08;;
37288;SDS011;23174;49.462;11.000;2024-02-15T05:36:50;2.95;;;2.35;;
37288;SDS011;23174;49.462;11.000;2024-02-15T05:38:52;2.65;;;2.08;;
37288;SDS011;23174;49.462;11.000;2024-02-15T05:40:53;2.90;;;2.40;;
37288;SDS011;23174;49.462;11.000;2024-02-15T05:42:56;2.50;;;2.30;;
37288;SDS011;23174;49.462;11.000;2024-02-15T05:44:59;3.08;;;2.47;;
37288;SDS011;23174;49.462;11.000;2024-02-15T05:47:36;3.70;;;2.90;;
37288;SDS011;23174;49.462;11.000;2024-02-15T05:49:36;3.95;;;3.58;;
37288;SDS011;23174;49.462;11.000;2024-02-15T05:51:37;4.10;;;3.63;;
37288;SDS011;23174;49.462;11.000;2024-02-15T05:53:37;3.97;;;3.67;;
37288;SDS011;23174;49.462;11.000;2024-02-15T05:55:38;4.20;;;3.85;;
37288;SDS011;23174;49.462;11.000;2024-02-15T05:57:41;4.30;;;3.70;;
37288;SDS011;23174;49.462;11.000;2024-02-15T05:59:43;6.38;;;3.40;;
37288;SDS011;23174;49.462;11.000;2024-02-15T06:01:43;3.75;;;3.35;;
37288;SDS011;23174;49.462;11.000;2024-02-15T06:03:44;6.22;;;3.80;;
37288;SDS011;23174;49.462;11.000;2024-02-15T06:05:44;4.72;;;4.32;;
37288;SDS011;23174;49.462;11.000;2024-02-15T06:07:45;4.82;;;4.35;;
37288;SDS011;23174;49.462;11.000;2024-02-15T06:09:46;4.80;;;4.15;;
37288;SDS011;23174;49.462;11.000;2024-02-15T06:11:46;7.50;;;5.80;;
37288;SDS011;23174;49.462;11.000;2024-02-15T06:13:47;4.47;;;4.18;;
37288;SDS011;23174;49.462;11.000;2024-02-15T06:15:47;4.22;;;3.03;;
37288;SDS011;23174;49.462;11.000;2024-02-15T06:17:52;3.45;;;2.92;;
37288;SDS011;23174;49.462;11.000;2024-02-15T06:19:53;5.18;;;2.42;;
37288;SDS011;23174;49.462;11.000;2024-02-15T06:21:54;4.68;;;3.03;;
37288;SDS011;23174;49.462;11.000;2024-02-15T06:23:55;3.90;;;3.17;;
37288;SDS011;23174;49.462;11.000;2024-02-15T06:25:56;3.55;;;2.10;;
37288;SDS011;23174;49.462;11.000;2024-02-15T06:28:02;3.08;;;2.13;;
37288;SDS011;23174;49.462;11.000;2024-02-15T06:30:13;2.50;;;2.30;;
37288;SDS011;23174;49.462;11.000;2024-02-15T06:32:32;2.83;;;2.53;;
37288;SDS011;23174;49.462;11.000;2024-02-15T06:34:51;4.40;;;3.55;;
37288;SDS011;23174;49.462;11.000;2024-02-15T06:37:10;5.18;;;2.53;;
37288;SDS011;23174;49.462;11.000;2024-02-15T06:39:50;14.65;;;4.50;;
37288;SDS011;23174;49.462;11.000;2024-02-15T06:41:51;6.07;;;4.53;;
37288;SDS011;23174;49.462;11.000;2024-02-15T06:43:52;4.10;;;3.70;;
37288;SDS011;23174;49.462;11.000;2024-02-15T06:45:53;4.40;;;3.15;;
37288;SDS011;23174;49.462;11.000;2024-02-15T06:47:53;3.47;;;3.15;;
37288;SDS011;23174;49.462;11.000;2024-02-15T06:49:54;3.55;;;2.38;;
37288;SDS011;23174;49.462;11.000;2024-02-15T06:51:55;6.00;;;2.63;;
37288;SDS011;23174;49.462;11.000;2024-02-15T06:53:56;2.60;;;2.40;;
37288;SDS011;23174;49.462;11.000;2024-02-15T06:55:56;1.67;;;0.50;;
37288;SDS011;23174;49.462;11.000;2024-02-15T06:57:57;1.92;;;1.30;;
37288;SDS011;23174;49.462;11.000;2024-02-15T06:59:57;0.43;;;0.40;;
37288;SDS011;23174;49.462;11.000;2024-02-15T07:02:01;0.95;;;0.88;;
37288;SDS011;23174;49.462;11.000;2024-02-15T07:04:04;1.13;;;1.02;;
37288;SDS011;23174;49.462;11.000;2024-02-15T07:06:05;1.00;;;0.80;;
37288;SDS011;23174;49.462;11.000;2024-02-15T07:08:07;5.97;;;2.95;;
37288;SDS011;23174;49.462;11.000;2024-02-15T07:10:10;3.10;;;2.55;;
37288;SDS011;23174;49.462;11.000;2024-02-15T07:12:11;2.60;;;2.40;;
37288;SDS011;23174;49.462;11.000;2024-02-15T07:14:12;3.70;;;2.80;;
37288;SDS011;23174;49.462;11.000;2024-02-15T07:16:13;3.13;;;2.83;;
37288;SDS011;23174;49.462;11.000;2024-02-15T07:18:15;4.70;;;4.30;;
37288;SDS011;23174;49.462;11.000;2024-02-15T07:20:18;4.90;;;4.00;;
37288;SDS011;23174;49.462;11.000;2024-02-15T07:22:19;3.53;;;3.22;;
37288;SDS011;23174;49.462;11.000;2024-02-15T07:24:19;4.28;;;3.15;;
37288;SDS011;23174;49.462;11.000;2024-02-15T07:26:20;4.50;;;3.08;;
37288;SDS011;23174;49.462;11.000;2024-02-15T07:28:24;3.55;;;3.25;;
37288;SDS011;23174;49.462;11.000;2024-02-15T07:30:26;4.65;;;3.25;;
37288;SDS011;23174;49.462;11.000;2024-02-15T07:32:26;5.35;;;3.08;;
37288;SDS011;23174;49.462;11.000;2024-02-15T07:34:27;6.53;;;2.90;;
37288;SDS011;23174;49.462;11.000;2024-02-15T07:36:27;4.32;;;2.65;;
37288;SDS011;23174;49.462;11.000;2024-02-15T07:38:28;7.05;;;3.05;;
37288;SDS011;23174;49.462;11.000;2024-02-15T07:40:29;3.53;;;3.22;;
37288;SDS011;23174;49.462;11.000;2024-02-15T07:42:29;3.38;;;2.88;;
37288;SDS011;23174;49.462;11.000;2024-02-15T07:44:30;4.63;;;3.13;;
37288;SDS011;23174;49.462;11.000;2024-02-15T07:46:32;3.50;;;2.60;;
37288;SDS011;23174;49.462;11.000;2024-02-15T07:48:33;5.32;;;2.95;;
37288;SDS011;23174;49.462;11.000;2024-02-15T07:50:33;4.75;;;2.50;;
37288;SDS011;23174;49.462;11.000;2024-02-15T07:52:36;4.82;;;2.50;;
37288;SDS011;23174;49.462;11.000;2024-02-15T07:54:38;11.43;;;3.05;;
37288;SDS011;23174;49.462;11.000;2024-02-15T07:56:38;5.00;;;2.80;;
37288;SDS011;23174;49.462;11.000;2024-02-15T07:58:39;3.38;;;3.08;;
37288;SDS011;23174;49.462;11.000;2024-02-15T08:00:46;6.20;;;3.67;;
37288;SDS011;23174;49.462;11.000;2024-02-15T08:02:47;4.30;;;3.92;;
37288;SDS011;23174;49.462;11.000;2024-02-15T08:04:47;3.42;;;3.10;;
37288;SDS011;23174;49.462;11.000;2024-02-15T08:06:48;4.80;;;4.00;;
37288;SDS011;23174;49.462;11.000;2024-02-15T08:08:48;4.32;;;3.95;;
37288;SDS011;23174;49.462;11.000;2024-02-15T08:10:51;3.67;;;3.38;;
37288;SDS011;23174;49.462;11.000;2024-02-15T08:12:52;10.05;;;3.80;;
37288;SDS011;23174;49.462;11.000;2024-02-15T08:14:52;3.58;;;3.28;;
37288;SDS011;23174;49.462;11.000;2024-02-15T08:16:53;4.88;;;3.67;;
37288;SDS011;23174;49.462;11.000;2024-02-15T08:18:55;5.25;;;3.20;;
37288;SDS011;23174;49.462;11.000;2024-02-15T08:20:56;5.93;;;3.40;;
37288;SDS011;23174;49.462;11.000;2024-02-15T08:22:57;6.05;;;3.97;;
37288;SDS011;23174;49.462;11.000;2024-02-15T08:24:59;5.45;;;3.35;;
37288;SDS011;23174;49.462;11.000;2024-02-15T08:26:59;4.20;;;3.33;;
37288;SDS011;23174;49.462;11.000;2024-02-15T08:29:00;7.28;;;3.47;;
37288;SDS011;23174;49.462;11.000;2024-02-15T08:31:03;4.53;;;3.50;;
37288;SDS011;23174;49.462;11.000;2024-02-15T08:33:04;7.60;;;3.33;;
37288;SDS011;23174;49.462;11.000;2024-02-15T08:35:05;6.40;;;3.45;;
37288;SDS011;23174;49.462;11.000;2024-02-15T08:37:06;4.40;;;2.63;;
37288;SDS011;23174;49.462;11.000;2024-02-15T08:39:07;2.70;;;2.50;;
37288;SDS011;23174;49.462;11.000;2024-02-15T08:41:12;3.97;;;2.97;;
37288;SDS011;23174;49.462;11.000;2024-02-15T08:43:12;3.10;;;2.80;;
37288;SDS011;23174;49.462;11.000;2024-02-15T08:45:14;2.95;;;2.53;;
37288;SDS011;23174;49.462;11.000;2024-02-15T08:47:15;3.40;;;2.75;;
37288;SDS011;23174;49.462;11.000;2024-02-15T08:49:15;4.28;;;2.80;;
37288;SDS011;23174;49.462;11.000;2024-02-15T08:51:16;4.32;;;2.88;;
37288;SDS011;23174;49.462;11.000;2024-02-15T08:53:17;2.97;;;2.67;;
37288;SDS011;23174;49.462;11.000;2024-02-15T08:55:21;7.15;;;2.58;;
37288;SDS011;23174;49.462;11.000;2024-02-15T08:57:26;6.25;;;2.35;;
37288;SDS011;23174;49.462;11.000;2024-02-15T08:59:27;3.47;;;2.80;;
37288;SDS011;23174;49.462;11.000;2024-02-15T09:01:28;7.50;;;2.67;;
37288;SDS011;23174;49.462;11.000;2024-02-15T09:03:30;2.83;;;2.50;;
37288;SDS011;23174;49.462;11.000;2024-02-15T09:05:30;4.38;;;2.50;;
37288;SDS011;23174;49.462;11.000;2024-02-15T09:07:30;2.75;;;2.55;;
37288;SDS011;23174;49.462;11.000;2024-02-15T09:09:31;2.58;;;2.38;;
37288;SDS011;23174;49.462;11.000;2024-02-15T09:11:31;3.28;;;2.42;;
37288;SDS011;23174;49.462;11.000;2024-02-15T09:13:32;2.50;;;2.20;;
37288;SDS011;23174;49.462;11.000;2024-02-15T09:15:34;3.10;;;2.80;;
37288;SDS011;23174;49.462;11.000;2024-02-15T09:17:35;3.42;;;3.17;;
37288;SDS011;23174;49.462;11.000;2024-02-15T09:19:39;6.75;;;2.65;;
37288;SDS011;23174;49.462;11.000;2024-02-15T09:21:39;3.45;;;2.70;;
37288;SDS011;23174;49.462;11.000;2024-02-15T09:23:40;3.42;;;2.70;;
37288;SDS011;23174;49.462;11.000;2024-02-15T09:25:41;5.00;;;2.42;;
37288;SDS011;23174;49.462;11.000;2024-02-15T09:27:44;4.47;;;3.28;;
37288;SDS011;23174;49.462;11.000;2024-02-15T09:29:47;8.68;;;3.08;;
37288;SDS011;23174;49.462;11.000;2024-02-15T09:31:48;4.43;;;2.63;;
37288;SDS011;23174;49.462;11.000;2024-02-15T09:33:48;5.25;;;2.63;;
37288;SDS011;23174;49.462;11.000;2024-02-15T09:35:49;3.65;;;2.67;;
37288;SDS011;23174;49.462;11.000;2024-02-15T09:37:49;5.47;;;2.80;;
37288;SDS011;23174;49.462;11.000;2024-02-15T09:39:50;4.97;;;2.20;;
37288;SDS011;23174;49.462;11.000;2024-02-15T09:41:50;2.75;;;2.38;;
37288;SDS011;23174;49.462;11.000;2024-02-15T09:43:58;2.90;;;2.30;;
37288;SDS011;23174;49.462;11.000;2024-02-15T09:45:58;4.45;;;2.42;;
37288;SDS011;23174;49.462;11.000;2024-02-15T09:47:59;3.67;;;3.03;;
37288;SDS011;23174;49.462;11.000;2024-02-15T09:50:06;2.70;;;2.47;;
37288;SDS011;23174;49.462;11.000;2024-02-15T09:52:07;3.42;;;2.78;;
37288;SDS011;23174;49.462;11.000;2024-02-15T09:54:11;3.35;;;2.72;;
37288;SDS011;23174;49.462;11.000;2024-02-15T09:56:16;3.08;;;2.35;;
37288;SDS011;23174;49.462;11.000;2024-02-15T09:58:18;7.50;;;2.80;;
37288;SDS011;23174;49.462;11.000;2024-02-15T10:00:19;3.60;;;2.80;;
37288;SDS011;23174;49.462;11.000;2024-02-15T10:02:20;41.47;;;6.20;;
37288;SDS011;23174;49.462;11.000;2024-02-15T10:04:21;4.05;;;2.63;;
37288;SDS011;23174;49.462;11.000;2024-02-15T10:06:22;3.10;;;2.30;;
37288;SDS011;23174;49.462;11.000;2024-02-15T10:08:22;7.03;;;2.60;;
37288;SDS011;23174;49.462;11.000;2024-02-15T10:10:25;5.18;;;2.80;;
37288;SDS011;23174;49.462;11.000;2024-02-15T10:12:36;3.58;;;2.83;;
37288;SDS011;23174;49.462;11.000;2024-02-15T10:14:38;4.22;;;2.70;;
37288;SDS011;23174;49.462;11.000;2024-02-15T10:16:38;3.80;;;2.50;;
37288;SDS011;23174;49.462;11.000;2024-02-15T10:18:40;4.68;;;3.15;;
37288;SDS011;23174;49.462;11.000;2024-02-15T10:20:40;4.32;;;2.67;;
37288;SDS011;23174;49.462;11.000;2024-02-15T10:22:44;3.25;;;2.53;;
37288;SDS011;23174;49.462;11.000;2024-02-15T10:24:44;6.30;;;2.65;;
37288;SDS011;23174;49.462;11.000;2024-02-15T10:26:46;4.05;;;1.88;;
37288;SDS011;23174;49.462;11.000;2024-02-15T10:28:57;5.63;;;2.40;;
37288;SDS011;23174;49.462;11.000;2024-02-15T10:31:07;4.32;;;2.20;;
37288;SDS011;23174;49.462;11.000;2024-02-15T10:33:28;3.60;;;2.80;;
37288;SDS011;23174;49.462;11.000;2024-02-15T10:35:29;4.07;;;2.30;;
37288;SDS011;23174;49.462;11.000;2024-02-15T10:37:34;6.07;;;3.13;;
37288;SDS011;23174;49.462;11.000;2024-02-15T10:39:34;5.65;;;2.95;;
37288;SDS011;23174;49.462;11.000;2024-02-15T10:41:35;4.28;;;2.25;;
37288;SDS011;23174;49.462;11.000;2024-02-15T10:43:36;4.65;;;1.70;;
37288;SDS011;23174;49.462;11.000;2024-02-15T10:45:39;3.97;;;2.35;;
37288;SDS011;23174;49.462;11.000;2024-02-15T10:47:40;4.18;;;2.47;;
37288;SDS011;23174;49.462;11.000;2024-02-15T10:49:42;3.25;;;2.30;;
37288;SDS011;23174;49.462;11.000;2024-02-15T10:51:43;3.35;;;2.22;;
37288;SDS011;23174;49.462;11.000;2024-02-15T10:53:51;6.05;;;2.88;;
37288;SDS011;23174;49.462;11.000;2024-02-15T10:56:13;3.95;;;2.22;;
37288;SDS011;23174;49.462;11.000;2024-02-15T10:58:19;4.00;;;2.33;;
37288;SDS011;23174;49.462;11.000;2024-02-15T11:00:21;3.28;;;2.10;;
37288;SDS011;23174;49.462;11.000;2024-02-15T11:02:26;3.45;;;2.60;;
37288;SDS011;23174;49.462;11.000;2024-02-15T11:04:30;3.80;;;2.90;;
37288;SDS011;23174;49.462;11.000;2024-02-15T11:06:35;9.82;;;2.40;;
37288;SDS011;23174;49.462;11.000;2024-02-15T11:08:41;4.40;;;2.15;;
37288;SDS011;23174;49.462;11.000;2024-02-15T11:10:44;6.93;;;2.53;;
37288;SDS011;23174;49.462;11.000;2024-02-15T11:12:45;3.65;;;2.25;;
37288;SDS011;23174;49.462;11.000;2024-02-15T11:14:47;3.50;;;2.05;;
37288;SDS011;23174;49.462;11.000;2024-02-15T11:16:49;3.72;;;2.13;;
37288;SDS011;23174;49.462;11.000;2024-02-15T11:18:50;2.50;;;2.03;;
37288;SDS011;23174;49.462;11.000;2024-02-15T11:20:55;2.80;;;1.83;;
37288;SDS011;23174;49.462;11.000;2024-02-15T11:23:02;3.05;;;1.70;;
37288;SDS011;23174;49.462;11.000;2024-02-15T11:25:06;4.20;;;1.90;;
37288;SDS011;23174;49.462;11.000;2024-02-15T11:27:11;3.55;;;2.30;;
37288;SDS011;23174;49.462;11.000;2024-02-15T11:31:53;2.17;;;1.95;;
37288;SDS011;23174;49.462;11.000;2024-02-15T11:33:54;2.72;;;1.90;;
37288;SDS011;23174;49.462;11.000;2024-02-15T11:36:11;4.35;;;2.28;;
37288;SDS011;23174;49.462;11.000;2024-02-15T11:38:16;4.57;;;2.10;;
37288;SDS011;23174;49.462;11.000;2024-02-15T11:40:29;3.33;;;1.92;;
37288;SDS011;23174;49.462;11.000;2024-02-15T11:42:38;4.70;;;2.50;;
37288;SDS011;23174;49.462;11.000;2024-02-15T11:44:39;3.03;;;2.15;;
37288;SDS011;23174;49.462;11.000;2024-02-15T11:46:40;5.00;;;2.13;;
37288;SDS011;23174;49.462;11.000;2024-02-15T11:48:40;4.20;;;2.10;;
37288;SDS011;23174;49.462;11.000;2024-02-15T11:50:41;2.30;;;1.80;;
37288;SDS011;23174;49.462;11.000;2024-02-15T11:52:42;2.67;;;1.92;;
37288;SDS011;23174;49.462;11.000;2024-02-15T11:54:43;3.10;;;1.67;;
37288;SDS011;23174;49.462;11.000;2024-02-15T11:59:00;4.45;;;2.03;;
37288;SDS011;23174;49.462;11.000;2024-02-15T12:01:02;3.17;;;2.00;;
37288;SDS011;23174;49.462;11.000;2024-02-15T12:03:22;3.20;;;1.80;;
37288;SDS011;23174;49.462;11.000;2024-02-15T12:05:42;2.72;;;1.75;;
37288;SDS011;23174;49.462;11.000;2024-02-15T12:08:01;2.55;;;1.77;;
37288;SDS011;23174;49.462;11.000;2024-02-15T12:10:20;1.65;;;1.52;;
37288;SDS011;23174;49.462;11.000;2024-02-15T12:12:42;5.50;;;1.92;;